Skip Navigation Links
NOAA logo - Click to go to the NOAA homepage
NOAA's National Weather Service
Alaska Aviation Weather Unit
  NWS logo - Click to go to the NWS homepage
Left Navbar Graphic     12 AKDT = 20 GMT

   
NOAA is celebrating 200 years of science, service, and stewardship. Visit the NOAA 200th celebration Web site to learn more.
USA.gov is the U.S. Government's official Web portal to all Federal, state and local government Web resources and services.
Facebook
NWS on Facebook

Important Change Regarding the AAWU Web Presence

 

Over the last several months, the AAWU has been working to navigate its webpages to a nationally supported server. Security, as well as other needs, have necessitated the change.  We have been given an extension for the site changeover while we diligently work at addressing feedback received. As of July 14, 2017, aawu.arh.noaa.gov will be discontinued. The new AAWU web address is weather.gov/aawu. It is now live and will run in-parallel with the old site until it is discontinued on July 14, 2017. Please continue to send any feedback or questions regarding the new webpages to nws.ar.aawu.webauthors@noaa.gov.  Thank you for your patience during this time of transition.
AAWU Home :: Display TAF Add Bookmark
SPECI PANI 251400Z AUTO 25003KT 1 1/2SM -RA BR FEW006 SCT019 OVC026
     12/11 A2994 RMK AO2 P0000=

SPECI PANI 251416Z AUTO 00000KT 1 1/2SM RA BR SCT005 BKN011 OVC024 12/12
     A2994 RMK AO2 P0001=

SPECI PANI 251431Z AUTO 00000KT 2SM -RA BR SCT005 BKN009 OVC016 12/12
     A2994 RMK AO2 CIG 006V011 P0002=

SPECI PANI 251448Z AUTO 00000KT 3SM -RA BR BKN005 BKN013 OVC018 12/12
     A2994 RMK AO2 P0003=

METAR PANI 251456Z AUTO 00000KT 1 3/4SM -RA BR BKN005 OVC016 12/12
 A2994 RMK AO2 SLP106 P0003 60008 T01170117 58001=

PANI 251545Z AUTO 00000KT 2 1/2SM RA BR SCT012 SCT020 OVC048 12/11
     A2993 RMK AO2 VIS 1 3/4V4 P0006=

SPECI PANI 251610Z AUTO 00000KT 4SM -RA BR FEW003 BKN022 OVC048 12/12
     A2993 RMK AO2 P0001=

PANI 251617Z AUTO 00000KT 1 3/4SM -RA BR SCT003 BKN017 OVC048
     12/12 A2993 RMK AO2 P0001=

METAR PANI 251656Z AUTO 27004KT 5SM -RA BR FEW015 OVC026 12/11 A2993 RMK
     AO2 SLP104 P0004 T01170111=

SPECI PANI 251733Z AUTO 26003KT 2 1/2SM BR FEW009 OVC026 12/11 A2993 RMK
     AO2 RAE19 P0000=

SPECI PANI 251741Z AUTO 28004KT 1SM BR FEW009 BKN019 OVC028 12/11 A2993
     RMK AO2 RAE19 P0000=

SPECI PANI 251748Z AUTO 28003KT 1 3/4SM -RA BR FEW003 BKN021 OVC028
     12/11 A2993 RMK AO2 RAE19B42 P0000=

PANI 251754Z AUTO 28004KT 3SM BR FEW003 BKN019 OVC026 12/11 A2993
     RMK AO2 RAE19B42E52 P0000=

METAR PANI 251755Z AUTO 28004KT 3SM BR FEW003 BKN021 OVC026 12/11 A2993
     RMK AO2 RAE19B42E52 SLP102 P0000 60020 T01170111 10117 20117
     56004=

SPECI PANI 251835Z AUTO 29004KT 2SM BR FEW019 BKN023 OVC028 12/11 A2993
     RMK AO2 RAB01E33 P0001=

METAR PANI 251856Z AUTO 00000KT 3SM -RA BR FEW009 BKN019 OVC026
 12/11 A2993 RMK AO2 RAB01 SLP103 P0003 T01170111=

SPECI PANI 251915Z AUTO 00000KT 10SM -RA FEW010 SCT029 OVC043 12/11
     A2992 RMK AO2 P0000=

SPECI PANI 251931Z AUTO 29003KT 5SM -RA BR FEW007 OVC043 12/11 A2992 RMK
     AO2 P0001=

SPECI PANI 251948Z AUTO 29005KT 7SM RA BKN008 BKN027 OVC044 12/11 A2992
     RMK AO2 CIG 004V013 P0002=

SPECI PANI 252025Z AUTO 26004KT 2 1/2SM BR SCT008 BKN014 OVC032 12/12
     A2992 RMK AO2 RAE19 P0000=


NOAA's National Weather Service
Alaska Aviation Weather Unit
6930 Sand Lake Road
Anchorage, AK 99502-1845
Disclaimer
Credits
Glossary
Privacy Policy
About Us
Career Opportunities
Contact AAWU Internet Services Site last modified: April, 17th 2012